Hudson, Kentucky
Current Conditions -  °F | °C
As of 11:58 AM on Saturday 20 Dec 2014 (Local Time) from KFTK Reporting Station
Overcast Overcast  
Wind Chill: 31°   Ceiling: 5500
Heat Index: 35°   Visibility: 10mi
Dew Point: 26°   Wind: 5mph
Humidity: 68%   Direction: 260°W
Pressure: 30.25"   Gusts: NA
Location:  37.65°N, 86.28°W
Report Text: KFTK 201758Z AUTO 26004KT 10SM OVC055 02/M04 A3025 RMK AO2 SLP254 T00181036 10021 21018 58008
Loading
Personal Weather Stations






























Interactive Weather Map New forecast layout! Learn more

10-Day Weather Forecast

Advertisements
Track Severe Weather on mobile